Time;durP1;ratioP1;P1;durP2;ratioP2;P2;SDS_P1;SDS_P2;PMS_P1;PMS_P2;Temp;Humidity;BMP_temperature;BMP_pressure;BME280_temperature;BME280_humidity;BME280_pressure;Samples;Min_cycle;Max_cycle;Signal;HPM_P1;HPM_P2
2023/06/13 00:01:04;;;;;;;7.20;6.60;;;;;;;18.25;46.31;100226.69;6029181;23;20018;-68
2023/06/13 00:03:33;;;;;;;6.80;6.32;;;;;;;18.60;45.92;100262.47;6057589;23;20605;-69
2023/06/13 00:06:01;;;;;;;7.57;6.85;;;;;;;18.56;46.58;100278.81;6032134;23;20027;-68
2023/06/13 00:08:31;;;;;;;6.88;6.30;;;;;;;18.50;46.43;100274.91;6057466;23;20802;-69
2023/06/13 00:10:58;;;;;;;7.20;6.60;;;;;;;18.46;46.51;100295.63;6030306;23;20041;-69
2023/06/13 00:13:25;;;;;;;7.30;6.80;;;;;;;17.95;46.32;100233.00;6028499;23;20089;-69
2023/06/13 00:15:54;;;;;;;7.10;6.60;;;;;;;17.55;46.69;100186.97;6056550;23;20022;-69
2023/06/13 00:18:45;;;;;;;18.83;17.70;;;;;;;18.36;47.37;100347.06;5977496;23;20019;-68
2023/06/13 00:21:20;;;;;;;6.90;6.50;;;;;;;18.24;47.70;100352.53;5981077;23;20010;-70
2023/06/13 00:23:46;;;;;;;7.15;6.65;;;;;;;18.14;48.17;100354.31;6029912;23;20034;-70
2023/06/13 00:26:13;;;;;;;7.53;6.80;;;;;;;18.05;48.95;100371.09;6055414;23;20612;-70
2023/06/13 00:28:39;;;;;;;7.18;6.68;;;;;;;17.74;49.10;100339.25;6030850;23;20057;-70
2023/06/13 00:31:06;;;;;;;7.82;7.00;;;;;;;17.85;49.47;100368.38;6056533;23;20022;-70
2023/06/13 00:33:33;;;;;;;6.72;6.22;;;;;;;17.77;49.24;100368.16;6029720;23;20049;-70
2023/06/13 00:35:59;;;;;;;7.22;6.63;;;;;;;17.72;49.97;100381.84;6057894;23;20018;-70
2023/06/13 00:38:28;;;;;;;7.35;6.75;;;;;;;17.65;50.37;100385.19;6028785;23;20022;-70
2023/06/13 00:40:55;;;;;;;7.35;6.80;;;;;;;17.61;50.48;100397.03;6028889;23;20601;-70
2023/06/13 00:43:21;;;;;;;6.78;6.28;;;;;;;17.53;51.52;100406.47;6057136;23;20026;-71
2023/06/13 00:45:48;;;;;;;6.90;6.40;;;;;;;17.49;51.69;100412.19;6030691;23;20034;-69
2023/06/13 00:48:14;;;;;;;7.60;6.47;;;;;;;17.43;51.55;100424.16;6057503;23;20014;-69
2023/06/13 00:50:43;;;;;;;7.68;7.18;;;;;;;17.37;52.32;100432.66;6029579;23;20061;-69
2023/06/13 00:53:16;;;;;;;7.25;6.68;;;;;;;17.34;52.77;100436.41;6058997;23;20610;-69
2023/06/13 00:55:44;;;;;;;7.43;6.85;;;;;;;17.30;52.81;100424.38;6030680;23;20085;-69
2023/06/13 00:58:11;;;;;;;7.07;6.57;;;;;;;17.05;52.73;100385.81;6057746;23;20500;-69
2023/06/13 01:00:39;;;;;;;7.55;6.85;;;;;;;17.23;53.40;100446.25;6030349;23;20458;-68
2023/06/13 01:03:14;;;;;;;6.57;6.18;;;;;;;17.17;53.67;100444.09;6057182;23;20034;-69
2023/06/13 01:05:45;;;;;;;6.75;6.35;;;;;;;15.97;54.42;100271.19;6030230;23;20053;-69
2023/06/13 01:08:16;;;;;;;7.20;6.70;;;;;;;17.06;54.97;100476.81;6074714;23;20057;-70
2023/06/13 01:10:48;;;;;;;7.28;6.68;;;;;;;16.83;55.09;100436.31;6039202;23;20449;-70
2023/06/13 01:13:19;;;;;;;7.18;6.60;;;;;;;16.93;55.57;100453.13;6061796;23;20024;-71
2023/06/13 01:15:59;;;;;;;6.68;6.18;;;;;;;16.69;55.26;100422.34;6030361;23;20026;-71
2023/06/13 01:18:31;;;;;;;7.25;6.57;;;;;;;16.78;56.45;100457.00;6004298;23;20396;-71
2023/06/13 01:21:00;;;;;;;7.43;6.82;;;;;;;16.58;56.68;100464.81;6028126;23;20043;-69
2023/06/13 01:23:44;;;;;;;7.00;6.43;;;;;;;16.69;56.78;100467.41;6061294;23;20593;-70
2023/06/13 01:26:33;;;;;;;7.78;7.18;;;;;;;16.59;56.63;100466.47;6026789;23;20025;-69
2023/06/13 01:29:00;;;;;;;6.50;6.05;;;;;;;16.15;56.85;100391.44;6055918;23;20034;-69
2023/06/13 01:31:28;;;;;;;6.50;6.00;;;;;;;16.24;56.67;100419.84;6029587;23;20023;-69
2023/06/13 01:33:55;;;;;;;6.95;6.47;;;;;;;15.99;57.26;100381.25;6059643;23;20097;-69
2023/06/13 01:36:21;;;;;;;6.80;6.30;;;;;;;16.35;57.43;100448.94;6028377;23;20574;-69
2023/06/13 01:38:48;;;;;;;7.22;6.63;;;;;;;16.02;57.36;100414.59;6034297;23;20019;-70
2023/06/13 01:41:15;;;;;;;7.53;6.93;;;;;;;15.91;58.07;100424.19;6056167;23;20034;-69
2023/06/13 01:43:41;;;;;;;7.68;7.03;;;;;;;16.21;58.53;100485.44;6028936;23;20055;-69
2023/06/13 01:46:24;;;;;;;6.68;6.07;;;;;;;16.03;59.08;100458.63;6029974;23;20027;-69
2023/06/13 01:49:31;;;;;;;6.82;6.10;;;;;;;16.05;60.18;100470.75;6056245;23;20504;-70
2023/06/13 01:52:07;;;;;;;7.57;6.95;;;;;;;15.96;60.52;100482.09;6028132;23;20101;-69
2023/06/13 01:54:41;;;;;;;7.05;6.55;;;;;;;15.92;61.50;100478.84;6028865;23;20057;-70
2023/06/13 01:57:09;;;;;;;7.82;6.60;;;;;;;15.85;61.29;100477.63;6028638;23;20014;-69
2023/06/13 01:59:38;;;;;;;6.97;6.47;;;;;;;15.76;61.09;100459.81;6054137;23;20033;-69
2023/06/13 02:02:05;;;;;;;6.25;5.82;;;;;;;15.80;61.74;100461.28;6028150;23;20025;-69
2023/06/13 02:04:39;;;;;;;7.68;6.75;;;;;;;15.80;61.33;100461.28;6057202;23;20030;-69
2023/06/13 02:07:06;;;;;;;7.50;6.65;;;;;;;15.77;60.93;100455.38;6002393;23;20507;-68
2023/06/13 02:09:33;;;;;;;7.10;6.40;;;;;;;15.49;61.89;100415.97;6029063;23;20041;-69
2023/06/13 02:11:59;;;;;;;8.02;7.30;;;;;;;15.66;62.22;100454.38;6024968;23;20027;-69
2023/06/13 02:14:26;;;;;;;6.70;6.20;;;;;;;15.25;61.97;100389.63;6029255;23;20019;-69
2023/06/13 02:16:52;;;;;;;7.10;6.50;;;;;;;15.62;61.91;100460.84;6057608;23;20018;-68
2023/06/13 02:19:20;;;;;;;7.18;6.60;;;;;;;15.64;62.55;100460.75;6001747;23;20061;-69
2023/06/13 02:21:47;;;;;;;6.55;6.07;;;;;;;15.51;62.81;100477.53;6030287;23;20014;-69
2023/06/13 02:24:14;;;;;;;6.68;6.25;;;;;;;15.36;63.39;100454.94;6027209;23;20018;-70
2023/06/13 02:26:41;;;;;;;7.65;6.97;;;;;;;15.18;63.05;100424.59;6052217;23;20033;-70
2023/06/13 02:29:07;;;;;;;7.68;7.07;;;;;;;14.78;63.24;100372.94;6027981;23;20049;-69
2023/06/13 02:31:35;;;;;;;6.80;6.20;;;;;;;15.29;63.19;100464.28;6012584;23;20038;-69
2023/06/13 02:34:02;;;;;;;6.93;6.22;;;;;;;14.96;64.07;100424.41;6028479;23;20752;-69
2023/06/13 02:36:28;;;;;;;9.20;6.40;;;;;;;15.20;63.35;100463.19;6028077;23;20018;-70
2023/06/13 02:38:54;;;;;;;7.45;6.65;;;;;;;15.18;63.87;100451.03;6056285;23;20097;-69
2023/06/13 02:41:21;;;;;;;6.75;6.25;;;;;;;15.12;63.80;100458.47;6026748;23;20312;-70
2023/06/13 02:43:47;;;;;;;6.70;6.18;;;;;;;15.07;63.55;100455.31;6027184;23;20023;-70
2023/06/13 02:46:15;;;;;;;7.55;6.95;;;;;;;14.88;64.16;100444.44;6055121;23;20383;-70
2023/06/13 02:48:41;;;;;;;7.32;6.72;;;;;;;15.03;64.51;100468.88;6027775;23;20017;-70
2023/06/13 02:51:08;;;;;;;6.65;6.20;;;;;;;14.89;63.90;100465.47;6055169;23;20086;-70
2023/06/13 02:53:35;;;;;;;6.80;6.30;;;;;;;14.94;64.22;100465.13;6028958;23;20046;-70
2023/06/13 02:56:02;;;;;;;6.63;6.20;;;;;;;14.91;64.62;100470.63;6024936;23;20074;-70
2023/06/13 02:58:28;;;;;;;6.70;6.22;;;;;;;14.57;64.12;100412.34;6049981;23;20030;-70
2023/06/13 03:00:55;;;;;;;7.38;6.45;;;;;;;14.56;64.27;100432.66;6028667;23;20030;-70
2023/06/13 03:03:23;;;;;;;6.85;6.38;;;;;;;14.74;64.78;100477.16;6003460;23;20599;-70
2023/06/13 03:05:56;;;;;;;7.00;6.47;;;;;;;14.55;65.63;100461.75;6049933;23;20054;-70
2023/06/13 03:08:26;;;;;;;7.18;6.57;;;;;;;14.65;65.08;100483.94;6000444;23;20027;-70
2023/06/13 03:10:53;;;;;;;7.07;6.57;;;;;;;14.49;65.30;100470.13;6056315;23;20032;-70
2023/06/13 03:13:20;;;;;;;5.80;5.50;;;;;;;14.59;65.82;100491.47;6032995;23;20027;-70
2023/06/13 03:15:47;;;;;;;6.90;6.40;;;;;;;14.14;66.07;100426.84;6061772;23;20600;-69
2023/06/13 03:18:14;;;;;;;6.57;6.15;;;;;;;14.55;66.22;100494.31;6035905;23;20093;-70
2023/06/13 03:20:46;;;;;;;6.90;6.40;;;;;;;14.24;66.23;100455.22;6058475;23;20090;-70
2023/06/13 03:23:13;;;;;;;7.20;6.63;;;;;;;14.52;66.12;100502.44;6030026;23;20034;-70
2023/06/13 03:25:43;;;;;;;6.95;6.38;;;;;;;14.39;66.27;100480.50;6057941;23;20109;-70
2023/06/13 03:28:09;;;;;;;6.70;6.20;;;;;;;14.51;66.37;100506.06;6028313;23;20520;-70
2023/06/13 03:30:37;;;;;;;7.40;6.80;;;;;;;14.54;66.24;100510.28;6033476;23;20026;-69
2023/06/13 03:33:04;;;;;;;7.47;6.70;;;;;;;14.61;66.60;100521.25;6039740;23;20411;-70
2023/06/13 03:35:32;;;;;;;6.43;5.97;;;;;;;14.48;66.38;100494.88;6034454;23;20026;-71
2023/06/13 03:37:58;;;;;;;6.68;6.18;;;;;;;14.62;66.26;100515.88;6030484;23;20031;-70
2023/06/13 03:40:24;;;;;;;7.80;7.13;;;;;;;14.63;67.09;100530.75;6029412;23;20089;-67
2023/06/13 03:42:51;;;;;;;6.35;5.85;;;;;;;14.50;66.62;100499.06;6057458;23;20027;-67
2023/06/13 03:45:17;;;;;;;6.80;6.30;;;;;;;14.48;66.57;100503.63;6031645;23;20022;-68
2023/06/13 03:47:44;;;;;;;6.35;5.85;;;;;;;14.25;66.76;100449.84;6058893;23;20026;-67
2023/06/13 03:50:11;;;;;;;7.28;6.68;;;;;;;14.45;66.90;100471.31;6030492;23;20480;-67
2023/06/13 03:52:38;;;;;;;7.00;6.50;;;;;;;14.81;66.24;100520.66;6058919;23;20571;-67
2023/06/13 03:55:06;;;;;;;6.68;6.07;;;;;;;14.92;66.86;100531.28;6030842;23;20026;-67
2023/06/13 03:57:35;;;;;;;6.90;6.38;;;;;;;14.78;66.33;100496.28;6030419;23;20073;-67
2023/06/13 04:00:04;;;;;;;6.75;6.35;;;;;;;14.99;65.87;100531.69;6058564;23;20018;-67
2023/06/13 04:02:31;;;;;;;8.32;7.63;;;;;;;15.07;66.50;100541.69;6030042;23;20029;-67
2023/06/13 04:04:57;;;;;;;6.53;6.03;;;;;;;15.20;66.20;100544.28;6058347;23;20038;-67
2023/06/13 04:07:25;;;;;;;6.50;6.00;;;;;;;15.34;65.43;100544.94;6030451;23;20503;-67
2023/06/13 04:09:51;;;;;;;6.82;6.32;;;;;;;15.82;65.29;100569.66;6056743;23;20032;-67
2023/06/13 04:12:20;;;;;;;8.55;6.40;;;;;;;16.71;63.24;100590.00;6028772;23;20049;-67
2023/06/13 04:14:47;;;;;;;6.95;6.35;;;;;;;17.60;60.71;100578.44;6061085;23;20026;-67
2023/06/13 04:17:13;;;;;;;7.00;6.40;;;;;;;18.43;58.23;100566.91;6029499;23;20454;-68
2023/06/13 04:19:39;;;;;;;6.85;6.38;;;;;;;18.53;56.16;100461.50;6054025;23;20030;-68
2023/06/13 04:22:06;;;;;;;7.90;7.20;;;;;;;19.65;54.68;100532.09;6027044;23;20026;-67
2023/06/13 04:24:32;;;;;;;7.55;6.95;;;;;;;20.02;53.40;100491.34;6056716;23;20854;-68
2023/06/13 04:27:03;;;;;;;7.90;6.72;;;;;;;20.66;52.04;100501.13;6029258;23;20399;-68
2023/06/13 04:29:31;;;;;;;7.15;6.65;;;;;;;20.97;51.06;100471.44;6059414;23;20496;-68
2023/06/13 04:31:57;;;;;;;7.60;6.90;;;;;;;21.20;50.20;100438.94;6030219;23;20090;-68
2023/06/13 04:34:24;;;;;;;7.38;6.85;;;;;;;21.81;49.28;100483.44;6057196;23;20022;-68
2023/06/13 04:36:55;;;;;;;7.07;6.53;;;;;;;22.26;47.87;100476.97;6029364;23;20082;-68
2023/06/13 04:39:24;;;;;;;7.68;6.88;;;;;;;22.62;48.29;100478.59;6027447;23;20529;-69
2023/06/13 04:41:55;;;;;;;7.40;6.90;;;;;;;22.89;47.31;100486.31;6032296;23;20097;-70
2023/06/13 04:44:25;;;;;;;7.60;7.00;;;;;;;22.92;46.86;100434.31;6029408;23;20600;-70
2023/06/13 04:46:57;;;;;;;7.55;6.82;;;;;;;22.62;46.08;100343.00;6029194;23;20101;-69
2023/06/13 04:49:25;;;;;;;;;;;;;;;23.71;46.07;100482.78;6030594;23;20074;-68
2023/06/13 04:51:53;;;;;;;7.22;6.72;;;;;;;23.86;45.30;100467.69;6028693;23;19907;-68
2023/06/13 04:54:19;;;;;;;7.15;6.65;;;;;;;23.82;44.92;100452.97;6032247;23;20018;-69
2023/06/13 04:56:45;;;;;;;7.25;6.75;;;;;;;24.52;44.84;100521.09;6055420;23;20030;-70
2023/06/13 04:59:12;;;;;;;7.63;7.03;;;;;;;24.57;43.88;100509.81;6030129;23;20132;-70
2023/06/13 05:01:39;;;;;;;7.18;6.68;;;;;;;24.79;44.15;100540.41;6030912;23;20021;-68
2023/06/13 05:04:06;;;;;;;7.85;7.07;;;;;;;25.05;43.55;100573.09;6040010;23;20030;-68
2023/06/13 05:06:37;;;;;;;7.93;7.22;;;;;;;25.08;43.30;100561.19;6039364;23;20257;-68
2023/06/13 05:09:06;;;;;;;7.25;6.85;;;;;;;25.64;42.51;100588.66;6002312;23;20033;-68
2023/06/13 05:11:32;;;;;;;7.65;7.05;;;;;;;26.12;42.07;100593.78;6058712;23;20010;-68
2023/06/13 05:13:58;;;;;;;7.68;7.07;;;;;;;26.31;42.47;100650.75;6031688;23;20098;-68
2023/06/13 05:16:29;;;;;;;7.38;6.88;;;;;;;26.36;43.48;100686.00;6054197;23;20079;-69
2023/06/13 05:19:00;;;;;;;7.28;6.75;;;;;;;26.60;42.62;100666.94;6028323;23;20034;-68
2023/06/13 05:21:28;;;;;;;7.13;6.63;;;;;;;26.70;41.11;100577.81;6028128;23;20109;-68
2023/06/13 05:23:56;;;;;;;7.65;7.05;;;;;;;26.80;41.06;100588.25;6051298;23;20191;-67
2023/06/13 05:26:22;;;;;;;8.13;7.00;;;;;;;26.83;39.84;100526.78;6030666;23;20585;-69
2023/06/13 05:28:49;;;;;;;7.28;6.78;;;;;;;27.12;38.84;100525.00;6052781;23;20041;-66
2023/06/13 05:31:15;;;;;;;7.55;6.85;;;;;;;27.02;36.58;100384.41;6025783;23;20042;-70
2023/06/13 05:33:42;;;;;;;8.02;7.32;;;;;;;27.24;35.69;100361.00;6058659;23;20026;-70
2023/06/13 05:36:08;;;;;;;8.30;7.60;;;;;;;27.57;35.32;100388.13;6029408;23;20018;-70
2023/06/13 05:38:36;;;;;;;7.60;7.00;;;;;;;27.20;34.51;100301.28;6057455;23;20019;-68
2023/06/13 05:41:02;;;;;;;8.40;7.57;;;;;;;27.11;34.60;100298.94;6027162;23;20022;-68
2023/06/13 05:43:29;;;;;;;7.57;7.03;;;;;;;27.33;34.96;100380.53;6029387;23;20671;-71
2023/06/13 05:45:55;;;;;;;7.65;7.07;;;;;;;27.25;34.98;100374.28;6030066;23;20031;-67
2023/06/13 05:48:22;;;;;;;8.48;7.78;;;;;;;27.08;34.54;100364.78;6056497;23;20015;-70
2023/06/13 05:50:48;;;;;;;7.80;7.18;;;;;;;26.59;34.63;100284.91;6030630;23;20011;-66
2023/06/13 05:53:15;;;;;;;7.53;7.00;;;;;;;26.83;35.38;100396.72;6056608;23;20036;-66
2023/06/13 05:55:41;;;;;;;7.45;6.95;;;;;;;26.51;35.53;100358.50;6029226;23;20332;-67
2023/06/13 05:58:08;;;;;;;8.18;7.35;;;;;;;27.19;35.32;100471.19;6052374;23;20576;-67
2023/06/13 06:00:34;;;;;;;7.07;6.57;;;;;;;27.38;34.93;100470.56;6028510;23;20047;-69
2023/06/13 06:03:04;;;;;;;7.10;6.60;;;;;;;27.72;33.87;100452.72;6003409;23;20379;-68
2023/06/13 06:05:31;;;;;;;7.28;6.78;;;;;;;27.09;34.99;100424.91;6032555;23;20039;-68
2023/06/13 06:07:57;;;;;;;7.68;7.10;;;;;;;27.01;35.05;100425.88;6030179;23;20021;-66
2023/06/13 06:10:24;;;;;;;7.47;6.93;;;;;;;27.48;34.02;100448.63;6053012;23;20042;-66
2023/06/13 06:12:50;;;;;;;7.40;6.80;;;;;;;27.10;34.54;100419.28;6027766;23;20058;-68
2023/06/13 06:15:17;;;;;;;7.03;6.63;;;;;;;26.96;34.94;100450.69;6031480;23;20014;-68
2023/06/13 06:17:43;;;;;;;7.45;6.85;;;;;;;26.76;35.15;100406.59;6028160;23;20030;-67
2023/06/13 06:20:10;;;;;;;7.20;6.80;;;;;;;27.00;34.67;100435.81;5998536;23;20668;-70
2023/06/13 06:22:37;;;;;;;7.45;6.85;;;;;;;27.03;34.80;100451.56;6029464;23;20046;-70
2023/06/13 06:25:05;;;;;;;7.05;6.45;;;;;;;26.97;33.96;100392.28;6051027;23;20030;-70
2023/06/13 06:27:31;;;;;;;7.18;6.68;;;;;;;26.34;35.27;100375.91;6001285;23;20097;-70
2023/06/13 06:29:58;;;;;;;7.78;7.18;;;;;;;25.44;36.79;100343.81;6025696;23;20092;-70
2023/06/13 06:32:24;;;;;;;7.50;7.00;;;;;;;24.96;36.60;100294.16;6028580;23;20006;-70
2023/06/13 06:34:51;;;;;;;7.65;7.07;;;;;;;24.67;37.10;100276.97;6031162;23;20498;-70
2023/06/13 06:37:17;;;;;;;7.70;7.10;;;;;;;24.92;37.66;100366.16;6027451;23;21390;-68
2023/06/13 06:39:44;;;;;;;7.70;7.20;;;;;;;24.60;38.21;100335.09;6056300;23;20026;-68
2023/06/13 06:42:11;;;;;;;8.23;7.57;;;;;;;23.75;38.19;100259.03;6027220;23;20015;-67
2023/06/13 06:44:38;;;;;;;7.40;6.90;;;;;;;24.21;38.61;100365.50;6028421;23;20027;-68
2023/06/13 06:47:11;;;;;;;7.75;7.15;;;;;;;24.00;38.82;100377.69;6053338;23;20025;-68
2023/06/13 06:49:37;;;;;;;7.35;6.65;;;;;;;23.96;38.70;100370.19;6031483;23;20022;-67
2023/06/13 06:52:04;;;;;;;7.88;7.28;;;;;;;23.40;38.61;100301.41;6055032;23;20022;-66
2023/06/13 06:54:32;;;;;;;7.80;7.20;;;;;;;24.03;39.32;100404.13;6028197;23;20030;-67
2023/06/13 06:56:58;;;;;;;8.52;6.97;;;;;;;24.08;38.61;100361.56;6025235;23;20055;-67
2023/06/13 06:59:25;;;;;;;7.82;7.30;;;;;;;24.06;38.94;100362.75;6054640;23;20039;-67
2023/06/13 07:01:51;;;;;;;7.85;7.25;;;;;;;23.91;37.59;100321.63;6027551;23;20213;-67
2023/06/13 07:04:18;;;;;;;7.97;7.20;;;;;;;24.01;37.44;100340.97;6055545;23;20042;-67
2023/06/13 07:06:45;;;;;;;7.40;6.90;;;;;;;23.97;38.12;100350.38;6025375;23;20348;-67
2023/06/13 07:09:11;;;;;;;7.70;7.10;;;;;;;24.03;37.99;100347.00;6051622;23;20551;-67
2023/06/13 07:11:38;;;;;;;7.30;6.55;;;;;;;23.97;37.05;100316.38;6028277;23;20018;-67
2023/06/13 07:14:04;;;;;;;7.32;6.78;;;;;;;23.80;38.13;100302.25;6060029;23;20014;-67
2023/06/13 07:16:31;;;;;;;7.65;7.05;;;;;;;23.91;39.22;100393.97;6027398;23;20014;-71
2023/06/13 07:18:57;;;;;;;7.85;7.07;;;;;;;24.08;38.13;100364.22;6056432;23;20194;-68
2023/06/13 07:21:24;;;;;;;7.53;6.85;;;;;;;24.13;37.74;100352.97;6026617;23;20019;-69
2023/06/13 07:23:50;;;;;;;7.13;6.53;;;;;;;23.86;37.93;100327.50;6055450;23;20031;-69
2023/06/13 07:26:33;;;;;;;6.90;6.50;;;;;;;24.47;37.13;100395.47;6022609;23;20014;-69
2023/06/13 07:28:59;;;;;;;6.65;6.25;;;;;;;24.50;37.73;100397.03;6026101;23;20023;-66
2023/06/13 07:31:26;;;;;;;6.78;6.28;;;;;;;23.79;37.27;100270.25;6000166;23;20097;-68
2023/06/13 07:33:52;;;;;;;12.52;6.65;;;;;;;24.09;37.03;100303.41;6036207;23;20093;-70
2023/06/13 07:36:19;;;;;;;8.65;6.90;;;;;;;24.23;37.24;100339.34;6025753;23;20140;-68
2023/06/13 07:38:45;;;;;;;7.07;6.40;;;;;;;24.33;36.96;100379.34;6057541;23;20210;-68
2023/06/13 07:41:12;;;;;;;7.18;6.70;;;;;;;24.34;35.56;100293.34;6023873;23;20057;-68
2023/06/13 07:43:38;;;;;;;7.10;6.50;;;;;;;24.38;35.87;100329.50;6055673;23;20010;-69
2023/06/13 07:46:06;;;;;;;6.50;6.07;;;;;;;24.38;37.05;100361.69;6028109;23;20050;-69
2023/06/13 07:48:32;;;;;;;7.00;6.40;;;;;;;24.61;36.39;100372.44;6026065;23;20057;-67
2023/06/13 07:50:59;;;;;;;6.70;6.20;;;;;;;24.71;36.49;100395.53;6027899;23;20022;-67
2023/06/13 07:53:25;;;;;;;6.63;6.20;;;;;;;24.87;36.30;100396.22;6054335;23;20089;-69
2023/06/13 07:55:54;;;;;;;7.03;6.53;;;;;;;24.72;36.64;100391.81;6029455;23;20093;-68
2023/06/13 07:58:21;;;;;;;6.90;6.40;;;;;;;24.75;36.84;100386.94;6029665;23;20030;-67
2023/06/13 08:00:47;;;;;;;6.95;6.45;;;;;;;24.62;36.41;100347.28;6059148;23;20056;-67
2023/06/13 08:03:13;;;;;;;10.60;6.55;;;;;;;24.64;35.32;100318.44;6030314;23;20469;-67
2023/06/13 08:05:40;;;;;;;6.25;5.85;;;;;;;24.48;35.81;100332.78;6058461;23;20033;-67
2023/06/13 08:08:07;;;;;;;6.75;6.35;;;;;;;24.71;36.14;100374.06;6028860;23;20042;-67
2023/06/13 08:10:33;;;;;;;6.72;6.22;;;;;;;24.86;35.83;100399.09;6059092;23;20449;-67
2023/06/13 08:13:00;;;;;;;6.50;6.10;;;;;;;24.83;35.05;100335.84;6032594;23;20022;-67
2023/06/13 08:15:26;;;;;;;6.60;6.10;;;;;;;24.39;35.48;100316.94;6060124;23;20045;-67
2023/06/13 08:17:54;;;;;;;6.40;5.93;;;;;;;24.75;35.63;100378.88;6031293;23;20097;-66
2023/06/13 08:20:21;;;;;;;7.05;6.47;;;;;;;24.75;35.34;100348.53;6031721;23;20034;-67
2023/06/13 08:22:47;;;;;;;6.50;6.10;;;;;;;24.82;35.56;100381.69;6033373;23;20023;-67
2023/06/13 08:25:14;;;;;;;6.88;6.32;;;;;;;25.00;35.10;100400.16;6056850;23;20023;-67
2023/06/13 08:27:41;;;;;;;7.18;6.68;;;;;;;24.85;35.57;100359.84;6028805;23;20038;-67
2023/06/13 08:30:08;;;;;;;6.85;6.45;;;;;;;25.04;35.17;100385.34;6057068;23;20022;-68
2023/06/13 08:32:34;;;;;;;6.38;5.97;;;;;;;24.88;34.88;100324.59;6029425;23;20046;-67
2023/06/13 08:35:03;;;;;;;6.72;6.22;;;;;;;25.01;34.03;100326.63;6058179;23;20026;-67
2023/06/13 08:37:29;;;;;;;6.60;6.20;;;;;;;25.06;35.04;100356.47;6030909;23;20053;-67
2023/06/13 08:39:55;;;;;;;7.07;6.50;;;;;;;25.13;34.71;100378.03;6053909;23;20034;-67
2023/06/13 08:42:22;;;;;;;6.55;6.10;;;;;;;25.45;34.12;100388.47;6030255;23;20041;-69
2023/06/13 08:44:49;;;;;;;6.70;6.30;;;;;;;25.50;34.88;100446.19;6054343;23;20077;-69
2023/06/13 08:47:18;;;;;;;6.68;6.22;;;;;;;25.75;33.53;100401.91;6029402;23;20208;-67
2023/06/13 08:50:03;;;;;;;7.00;6.50;;;;;;;25.48;34.18;100363.94;6028175;23;20033;-66
2023/06/13 08:52:37;;;;;;;6.32;6.03;;;;;;;25.67;33.48;100353.63;6033970;23;20051;-67
2023/06/13 08:55:06;;;;;;;6.85;6.35;;;;;;;25.95;33.73;100430.94;6030480;23;20651;-69
2023/06/13 08:57:54;;;;;;;7.00;6.30;;;;;;;26.14;33.90;100424.13;6058628;23;20553;-66
2023/06/13 09:00:22;;;;;;;7.60;6.90;;;;;;;25.98;33.73;100420.66;6028817;23;20053;-67
2023/06/13 09:02:50;;;;;;;6.72;6.20;;;;;;;26.06;34.18;100422.41;6027796;23;20367;-67
2023/06/13 09:05:18;;;;;;;6.90;6.40;;;;;;;26.26;32.77;100393.88;6030654;23;20462;-67
2023/06/13 09:07:49;;;;;;;6.70;6.30;;;;;;;26.01;33.24;100362.97;6029110;23;20506;-67
2023/06/13 09:10:15;;;;;;;7.72;7.03;;;;;;;26.01;33.80;100404.13;6056232;23;20076;-67
2023/06/13 09:12:45;;;;;;;6.70;6.30;;;;;;;25.85;33.51;100356.72;6029425;23;20027;-67
2023/06/13 09:15:12;;;;;;;6.85;6.35;;;;;;;26.00;33.55;100364.81;6059299;23;20579;-66
2023/06/13 09:17:39;;;;;;;7.18;6.68;;;;;;;26.00;33.85;100388.16;6027576;23;20019;-68
2023/06/13 09:20:08;;;;;;;7.30;6.80;;;;;;;25.36;33.28;100276.75;6028641;23;20099;-67
2023/06/13 09:22:35;;;;;;;6.97;6.38;;;;;;;25.58;33.95;100355.59;6029209;23;20733;-67
2023/06/13 09:25:04;;;;;;;6.65;6.15;;;;;;;25.31;33.41;100295.28;6029139;23;20604;-67
2023/06/13 09:27:31;;;;;;;6.68;6.18;;;;;;;25.49;33.21;100345.94;6027139;23;20053;-67
2023/06/13 09:30:02;;;;;;;6.47;6.07;;;;;;;26.06;34.36;100451.97;6030726;23;20038;-70
2023/06/13 09:32:28;;;;;;;6.68;6.28;;;;;;;26.00;34.22;100420.44;6028504;23;21627;-67
2023/06/13 09:34:55;;;;;;;7.93;7.22;;;;;;;25.96;32.96;100371.59;6008016;23;20101;-67
2023/06/13 09:37:24;;;;;;;7.25;6.75;;;;;;;26.12;33.32;100389.38;6025939;23;20053;-68
2023/06/13 09:39:52;;;;;;;7.30;6.70;;;;;;;25.40;34.08;100315.66;6056579;23;20040;-67
2023/06/13 09:42:35;;;;;;;7.25;6.55;;;;;;;25.46;33.45;100298.78;6027096;23;20022;-70
2023/06/13 09:45:07;;;;;;;7.43;6.90;;;;;;;25.41;34.05;100341.50;6028510;23;20035;-68
2023/06/13 09:47:34;;;;;;;6.78;6.38;;;;;;;25.23;34.66;100338.34;6028938;23;20029;-67
2023/06/13 09:50:02;;;;;;;7.05;6.45;;;;;;;25.59;34.58;100415.53;6059058;23;20120;-67
2023/06/13 09:52:32;;;;;;;7.10;6.60;;;;;;;26.09;33.39;100405.03;6004885;23;20038;-67
2023/06/13 09:54:59;;;;;;;6.80;6.30;;;;;;;26.03;32.41;100325.94;6058715;23;20618;-69
2023/06/13 09:57:25;;;;;;;6.82;6.43;;;;;;;26.15;33.97;100423.09;6023214;23;20010;-67
2023/06/13 10:00:09;;;;;;;9.10;7.22;;;;;;;26.33;32.95;100379.66;6054455;23;20088;-67
2023/06/13 10:02:36;;;;;;;6.78;6.38;;;;;;;26.27;33.09;100359.72;6026432;23;20045;-67
2023/06/13 10:05:03;;;;;;;7.25;6.65;;;;;;;26.66;32.86;100433.81;6053607;23;20031;-69
2023/06/13 10:07:29;;;;;;;6.97;6.47;;;;;;;26.71;33.38;100426.00;6029699;23;20110;-67
2023/06/13 10:09:56;;;;;;;7.00;6.50;;;;;;;26.93;32.99;100451.06;6057053;23;20034;-67
2023/06/13 10:12:23;;;;;;;8.27;7.68;;;;;;;27.29;32.27;100460.94;6026078;23;20015;-67
2023/06/13 10:14:58;;;;;;;8.55;6.70;;;;;;;27.01;32.32;100385.47;6062814;23;20022;-67
2023/06/13 10:17:31;;;;;;;7.28;6.78;;;;;;;26.73;31.59;100291.22;6027760;23;20097;-69
2023/06/13 10:20:04;;;;;;;7.10;6.50;;;;;;;27.01;32.63;100440.16;6019267;23;20027;-69
2023/06/13 10:22:32;;;;;;;7.55;7.00;;;;;;;27.16;31.92;100404.22;6059352;23;20050;-69
2023/06/13 10:24:59;;;;;;;6.97;6.43;;;;;;;27.41;31.71;100428.91;6029343;23;20094;-68
2023/06/13 10:27:25;;;;;;;7.55;6.95;;;;;;;27.57;31.75;100409.72;6055089;23;20018;-69
2023/06/13 10:30:13;;;;;;;6.90;6.50;;;;;;;26.84;31.13;100290.66;6026999;23;20044;-70
2023/06/13 10:32:58;;;;;;;8.07;7.47;;;;;;;26.34;31.35;100215.34;6058058;23;20017;-69
2023/06/13 10:35:48;;;;;;;7.28;6.72;;;;;;;26.39;31.76;100299.00;6028385;23;20017;-69
2023/06/13 10:38:42;;;;;;;7.10;6.50;;;;;;;26.56;31.79;100318.41;6056480;23;20081;-69
2023/06/13 10:41:29;;;;;;;9.70;6.60;;;;;;;26.27;32.10;100305.91;6025183;23;20110;-67
2023/06/13 10:44:09;;;;;;;6.53;6.13;;;;;;;27.06;31.36;100396.47;6052822;23;20038;-68
2023/06/13 10:46:36;;;;;;;7.25;6.70;;;;;;;27.23;29.70;100289.25;6026169;23;20024;-69
2023/06/13 10:49:03;;;;;;;6.90;6.40;;;;;;;27.18;29.90;100319.50;6028254;23;20709;-69
2023/06/13 10:51:31;;;;;;;11.57;6.78;;;;;;;27.07;30.64;100320.03;6056657;23;20034;-69
2023/06/13 10:54:07;;;;;;;7.45;6.85;;;;;;;27.20;31.17;100384.78;6031760;23;20050;-68
2023/06/13 10:56:37;;;;;;;7.00;6.60;;;;;;;26.67;30.46;100234.44;6053309;23;20018;-67
2023/06/13 10:59:06;;;;;;;7.10;6.28;;;;;;;26.66;30.42;100213.94;6029480;23;20054;-69
2023/06/13 11:01:34;;;;;;;7.38;6.88;;;;;;;26.84;29.79;100205.34;6052592;23;20014;-68
2023/06/13 11:04:14;;;;;;;7.18;6.68;;;;;;;26.57;30.95;100241.19;6026945;23;20015;-67
2023/06/13 11:06:43;;;;;;;6.53;6.18;;;;;;;26.74;31.26;100272.19;6057613;23;20371;-67
2023/06/13 11:09:19;;;;;;;6.65;6.25;;;;;;;26.81;31.33;100301.84;6028690;23;20082;-67
2023/06/13 11:11:51;;;;;;;7.18;6.60;;;;;;;27.46;30.84;100377.91;6054560;23;20026;-67
2023/06/13 11:14:23;;;;;;;;;;;;;;;26.69;31.18;100263.84;6007386;23;20054;-67
2023/06/13 11:16:50;;;;;;;7.30;6.70;;;;;;;27.58;31.19;100414.09;6049604;23;19926;-67
2023/06/13 11:19:21;;;;;;;6.88;6.38;;;;;;;27.88;30.55;100394.13;6027427;23;20030;-67
2023/06/13 11:21:59;;;;;;;7.60;6.93;;;;;;;28.22;29.28;100345.44;6053374;23;20037;-67
2023/06/13 11:24:30;;;;;;;7.25;6.85;;;;;;;28.34;29.44;100374.53;6026389;23;20157;-66
2023/06/13 11:26:59;;;;;;;6.75;6.25;;;;;;;28.13;29.32;100305.41;6026649;23;20042;-69
2023/06/13 11:29:29;;;;;;;7.22;6.63;;;;;;;27.77;29.43;100258.81;6047807;23;20516;-67
2023/06/13 11:31:56;;;;;;;7.00;6.53;;;;;;;27.66;28.84;100218.94;6027378;23;20038;-67
2023/06/13 11:34:36;;;;;;;7.40;6.80;;;;;;;27.56;28.82;100208.56;6060800;23;20021;-66